createdAt,value
2022-10-10T00:00:30.082Z,57.05
2022-10-10T00:01:34.846Z,56.98
2022-10-10T00:02:36.504Z,57.30
2022-10-10T00:03:37.979Z,57.10
2022-10-10T00:04:39.582Z,57.29
2022-10-10T00:05:41.076Z,57.36
2022-10-10T00:06:42.631Z,57.39
2022-10-10T00:07:45.445Z,57.30
2022-10-10T00:08:46.930Z,57.18
2022-10-10T00:09:48.398Z,57.65
2022-10-10T00:10:49.902Z,57.48
2022-10-10T00:11:51.366Z,57.59
2022-10-10T00:12:53.093Z,57.42
2022-10-10T00:13:54.911Z,57.34
2022-10-10T00:14:56.384Z,57.73
2022-10-10T00:15:57.852Z,57.63
2022-10-10T00:16:59.330Z,57.61
2022-10-10T00:18:00.829Z,57.40
2022-10-10T00:19:02.324Z,57.59
2022-10-10T00:20:03.911Z,57.64
2022-10-10T00:21:05.666Z,57.50
2022-10-10T00:22:07.200Z,57.27
2022-10-10T00:23:08.670Z,57.35
2022-10-10T00:24:10.583Z,57.16
2022-10-10T00:25:12.043Z,57.27
2022-10-10T00:26:18.538Z,57.42
2022-10-10T00:27:20.815Z,57.45
2022-10-10T00:28:22.375Z,57.21
2022-10-10T00:29:23.957Z,57.40
2022-10-10T00:30:30.732Z,57.16
2022-10-10T00:31:32.222Z,57.38
2022-10-10T00:32:33.900Z,57.40
2022-10-10T00:33:35.614Z,57.54
2022-10-10T00:34:37.491Z,57.54
2022-10-10T00:35:39.523Z,57.46
2022-10-10T00:36:40.991Z,57.61
2022-10-10T00:37:42.445Z,57.61
2022-10-10T00:38:43.957Z,57.50
2022-10-10T00:39:45.450Z,57.46
2022-10-10T00:40:47.766Z,57.47
2022-10-10T00:41:49.295Z,57.64
2022-10-10T00:42:50.937Z,57.58
2022-10-10T00:44:05.684Z,57.45
2022-10-10T00:45:18.986Z,58.06
2022-10-10T00:46:20.443Z,58.05
2022-10-10T00:47:21.939Z,57.88
2022-10-10T00:48:27.544Z,57.91
2022-10-10T00:49:29.173Z,57.93
2022-10-10T00:50:30.691Z,58.03
2022-10-10T00:51:32.243Z,58.06
2022-10-10T00:52:33.861Z,58.11
2022-10-10T00:53:42.982Z,57.96
2022-10-10T00:54:44.498Z,58.00
2022-10-10T00:55:46.025Z,58.10
2022-10-10T00:56:48.386Z,58.06
2022-10-10T00:57:50.043Z,57.80
2022-10-10T00:58:52.347Z,58.02
2022-10-10T00:59:53.804Z,57.91
2022-10-10T01:00:55.314Z,58.14
2022-10-10T01:01:56.826Z,57.90
2022-10-10T01:02:58.250Z,57.92
2022-10-10T01:04:00.183Z,57.99
2022-10-10T01:05:01.688Z,57.93
2022-10-10T01:06:03.238Z,57.81
2022-10-10T01:07:05.751Z,57.98
2022-10-10T01:08:07.316Z,57.93
2022-10-10T01:09:08.793Z,57.77
2022-10-10T01:10:11.793Z,58.04
2022-10-10T01:11:13.286Z,57.89
2022-10-10T01:12:14.706Z,57.91
2022-10-10T01:13:18.975Z,58.02
2022-10-10T01:14:40.713Z,58.09
2022-10-10T01:16:01.515Z,58.12
2022-10-10T01:17:23.274Z,58.15
2022-10-10T01:18:24.727Z,58.18
2022-10-10T01:19:37.245Z,58.23
2022-10-10T01:20:41.314Z,57.97
2022-10-10T01:21:46.045Z,58.11
2022-10-10T01:22:53.328Z,57.89
2022-10-10T01:24:04.256Z,57.83
2022-10-10T01:25:24.463Z,58.06
2022-10-10T01:26:44.741Z,58.02
2022-10-10T01:27:46.788Z,58.20
2022-10-10T01:28:51.948Z,57.88
2022-10-10T01:29:56.771Z,58.14
2022-10-10T01:30:58.275Z,58.23
2022-10-10T01:32:18.156Z,57.95
2022-10-10T01:33:21.900Z,57.94
2022-10-10T01:34:36.620Z,58.13
2022-10-10T01:35:53.933Z,58.39
2022-10-10T01:37:16.592Z,58.14
2022-10-10T01:38:36.587Z,58.44
2022-10-10T01:39:53.167Z,58.28
2022-10-10T01:41:03.714Z,58.19
2022-10-10T01:42:07.442Z,58.37
2022-10-10T01:43:08.976Z,58.31
2022-10-10T01:44:10.515Z,58.25
2022-10-10T01:45:12.049Z,58.35
2022-10-10T01:46:14.409Z,58.54
2022-10-10T01:47:15.898Z,58.66
2022-10-10T01:48:18.114Z,58.75
2022-10-10T01:49:27.836Z,58.68
2022-10-10T01:50:29.528Z,58.61
2022-10-10T01:51:38.015Z,58.62
2022-10-10T01:52:45.703Z,58.94
2022-10-10T01:53:54.447Z,59.11
2022-10-10T01:55:07.852Z,59.08
2022-10-10T01:56:14.503Z,58.83
2022-10-10T01:57:20.705Z,59.06
2022-10-10T01:58:22.135Z,59.28
2022-10-10T01:59:26.463Z,59.18
2022-10-10T02:00:28.374Z,59.39
2022-10-10T02:01:51.671Z,59.01
2022-10-10T02:02:55.911Z,59.37
2022-10-10T02:04:00.936Z,59.31
2022-10-10T02:05:10.760Z,59.53
2022-10-10T02:06:15.379Z,59.28
2022-10-10T02:07:35.695Z,59.34
2022-10-10T02:08:41.271Z,59.52
2022-10-10T02:09:42.824Z,59.39
2022-10-10T02:10:48.907Z,59.72
2022-10-10T02:11:50.346Z,59.64
2022-10-10T02:12:52.167Z,59.55
2022-10-10T02:13:57.876Z,59.65
2022-10-10T02:15:01.696Z,59.49
2022-10-10T02:16:03.224Z,59.50
2022-10-10T02:17:04.661Z,59.44
2022-10-10T02:18:06.350Z,59.16
2022-10-10T02:19:08.551Z,59.52
2022-10-10T02:20:10.877Z,59.16
2022-10-10T02:21:12.355Z,59.17
2022-10-10T02:22:13.838Z,59.14
2022-10-10T02:23:16.226Z,59.27
2022-10-10T02:24:18.040Z,59.10
2022-10-10T02:25:22.017Z,59.43
2022-10-10T02:26:23.746Z,59.44
2022-10-10T02:27:27.834Z,59.06
2022-10-10T02:28:29.293Z,59.00
2022-10-10T02:29:31.849Z,59.13
2022-10-10T02:30:37.006Z,58.89
2022-10-10T02:31:47.029Z,58.98
2022-10-10T02:32:49.839Z,58.92
2022-10-10T02:33:53.251Z,58.72
2022-10-10T02:34:55.589Z,58.94
2022-10-10T02:35:57.087Z,58.90
2022-10-10T02:36:59.782Z,59.01
2022-10-10T02:38:01.348Z,58.88
2022-10-10T02:39:03.011Z,58.67
2022-10-10T02:40:05.058Z,58.71
2022-10-10T02:41:06.585Z,58.86
2022-10-10T02:42:08.119Z,58.89
2022-10-10T02:43:09.616Z,58.93
2022-10-10T02:44:11.677Z,59.01
2022-10-10T02:45:13.180Z,58.97
2022-10-10T02:46:14.682Z,58.83
2022-10-10T02:47:16.649Z,59.00
2022-10-10T02:48:18.609Z,59.10
2022-10-10T02:49:23.352Z,58.96
2022-10-10T02:50:24.828Z,59.08
2022-10-10T02:51:30.179Z,58.84
2022-10-10T02:52:32.235Z,58.98
2022-10-10T02:53:34.159Z,58.95
2022-10-10T02:54:35.623Z,58.92
2022-10-10T02:55:37.071Z,58.93
2022-10-10T02:56:38.579Z,58.70
2022-10-10T02:57:40.077Z,58.88
2022-10-10T02:58:41.591Z,58.69
2022-10-10T02:59:43.047Z,58.62
2022-10-10T03:00:44.553Z,58.66
2022-10-10T03:01:46.148Z,58.61
2022-10-10T03:02:47.763Z,58.79
2022-10-10T03:03:49.313Z,58.91
2022-10-10T03:04:50.766Z,59.08
2022-10-10T03:05:52.298Z,59.00
2022-10-10T03:06:53.827Z,58.80
2022-10-10T03:07:55.466Z,59.20
2022-10-10T03:08:56.902Z,58.99
2022-10-10T03:09:58.388Z,59.27
2022-10-10T03:11:00.559Z,59.32
2022-10-10T03:12:02.087Z,59.03
2022-10-10T03:13:03.598Z,59.27
2022-10-10T03:14:05.043Z,59.02
2022-10-10T03:15:11.253Z,59.15
2022-10-10T03:16:13.246Z,59.36
2022-10-10T03:17:14.725Z,59.43
2022-10-10T03:18:16.265Z,59.46
2022-10-10T03:19:17.727Z,59.66
2022-10-10T03:20:19.189Z,59.56
2022-10-10T03:21:20.664Z,59.62
2022-10-10T03:22:22.127Z,59.54
2022-10-10T03:23:24.692Z,59.59
2022-10-10T03:24:26.572Z,59.50
2022-10-10T03:25:28.486Z,59.81
2022-10-10T03:26:29.936Z,59.51
2022-10-10T03:27:31.460Z,59.75
2022-10-10T03:28:33.013Z,59.90
2022-10-10T03:29:34.516Z,59.69
2022-10-10T03:30:36.215Z,59.94
2022-10-10T03:31:37.731Z,60.02
2022-10-10T03:32:39.222Z,60.12
2022-10-10T03:33:40.676Z,59.91
2022-10-10T03:34:42.183Z,59.81
2022-10-10T03:35:43.684Z,59.94
2022-10-10T03:36:45.128Z,60.01
2022-10-10T03:37:46.603Z,59.81
2022-10-10T03:38:48.048Z,60.14
2022-10-10T03:39:49.570Z,59.80
2022-10-10T03:40:51.003Z,60.02
2022-10-10T03:41:52.468Z,60.14
2022-10-10T03:42:54.187Z,59.97
2022-10-10T03:43:56.132Z,60.00
2022-10-10T03:44:57.614Z,60.02
2022-10-10T03:45:59.104Z,59.61
2022-10-10T03:47:00.566Z,59.82
2022-10-10T03:48:02.125Z,59.94
2022-10-10T03:49:03.618Z,59.79
2022-10-10T03:50:05.444Z,59.62
2022-10-10T03:51:06.964Z,59.95
2022-10-10T03:52:08.461Z,59.59
2022-10-10T03:53:09.986Z,59.77
2022-10-10T03:54:11.434Z,59.71
2022-10-10T03:55:13.113Z,59.69
2022-10-10T03:56:14.591Z,59.97
2022-10-10T03:57:16.079Z,59.87
2022-10-10T03:58:22.845Z,59.78
2022-10-10T03:59:25.207Z,59.86
2022-10-10T04:00:26.684Z,59.63
2022-10-10T04:01:28.326Z,59.76
2022-10-10T04:02:29.927Z,59.78
2022-10-10T04:03:31.398Z,59.90
2022-10-10T04:04:32.903Z,59.68
2022-10-10T04:05:34.942Z,59.93
2022-10-10T04:06:36.554Z,59.61
2022-10-10T04:07:38.283Z,59.89
2022-10-10T04:08:39.885Z,59.95
2022-10-10T04:09:41.394Z,59.87
2022-10-10T04:10:42.868Z,60.09
2022-10-10T04:11:44.334Z,60.24
2022-10-10T04:12:45.819Z,60.03
2022-10-10T04:13:47.323Z,60.02
2022-10-10T04:14:48.794Z,59.98
2022-10-10T04:15:51.121Z,59.92
2022-10-10T04:16:52.582Z,60.00
2022-10-10T04:17:54.106Z,60.24
2022-10-10T04:18:55.604Z,60.12
2022-10-10T04:19:57.067Z,60.21
2022-10-10T04:21:01.322Z,59.93
2022-10-10T04:22:02.836Z,60.06
2022-10-10T04:23:04.289Z,59.93
2022-10-10T04:24:05.823Z,60.20
2022-10-10T04:25:07.431Z,60.44
2022-10-10T04:26:09.011Z,60.14
2022-10-10T04:27:10.972Z,60.20
2022-10-10T04:28:12.964Z,60.31
2022-10-10T04:29:14.471Z,60.47
2022-10-10T04:30:15.943Z,60.18
2022-10-10T04:31:17.442Z,60.25
2022-10-10T04:32:18.944Z,60.30
2022-10-10T04:33:20.378Z,60.29
2022-10-10T04:34:21.903Z,60.22
2022-10-10T04:35:23.375Z,60.22
2022-10-10T04:36:24.835Z,60.27
2022-10-10T04:37:26.273Z,60.26
2022-10-10T04:38:28.318Z,60.41
2022-10-10T04:39:29.960Z,60.54
2022-10-10T04:40:31.459Z,60.61
2022-10-10T04:41:32.943Z,60.94
2022-10-10T04:42:34.382Z,60.73
2022-10-10T04:43:35.894Z,60.56
2022-10-10T04:44:37.594Z,60.69
2022-10-10T04:45:39.047Z,61.26
2022-10-10T04:46:40.500Z,61.03
2022-10-10T04:47:42.068Z,60.82
2022-10-10T04:48:43.513Z,61.29
2022-10-10T04:49:44.993Z,61.66
2022-10-10T04:50:50.990Z,62.00
2022-10-10T04:51:52.462Z,61.89
2022-10-10T04:52:54.112Z,62.07
2022-10-10T04:53:55.659Z,62.10
2022-10-10T04:54:57.130Z,61.90
2022-10-10T04:55:58.597Z,61.99
2022-10-10T04:57:00.066Z,61.83
2022-10-10T04:58:01.507Z,61.52
2022-10-10T04:59:03.027Z,61.83
2022-10-10T05:00:04.971Z,61.66
2022-10-10T05:01:06.874Z,61.44
2022-10-10T05:02:08.325Z,61.55
2022-10-10T05:03:11.585Z,61.96
2022-10-10T05:04:14.522Z,61.88
2022-10-10T05:05:16.046Z,61.80
2022-10-10T05:06:17.502Z,62.11
2022-10-10T05:07:18.979Z,62.24
2022-10-10T05:08:20.438Z,62.48
2022-10-10T05:09:21.902Z,62.76
2022-10-10T05:10:23.890Z,62.49
2022-10-10T05:11:25.345Z,62.48
2022-10-10T05:12:26.817Z,62.27
2022-10-10T05:13:28.309Z,62.19
2022-10-10T05:14:29.800Z,62.51
2022-10-10T05:15:31.886Z,62.31
2022-10-10T05:16:33.354Z,62.09
2022-10-10T05:17:34.944Z,61.82
2022-10-10T05:18:39.501Z,61.87
2022-10-10T05:19:41.028Z,62.05
2022-10-10T05:20:43.993Z,62.17
2022-10-10T05:21:45.464Z,62.18
2022-10-10T05:22:47.024Z,62.17
2022-10-10T05:23:48.474Z,62.31
2022-10-10T05:24:50.023Z,62.31
2022-10-10T05:25:51.649Z,62.16
2022-10-10T05:26:53.111Z,61.95
2022-10-10T05:27:54.659Z,61.94
2022-10-10T05:28:56.142Z,62.07
2022-10-10T05:29:57.634Z,62.02
2022-10-10T05:30:59.103Z,62.41
2022-10-10T05:32:00.581Z,62.38
2022-10-10T05:33:02.031Z,62.39
2022-10-10T05:34:03.510Z,62.19
2022-10-10T05:35:05.286Z,62.32
2022-10-10T05:36:10.726Z,62.10
2022-10-10T05:37:12.374Z,62.33
2022-10-10T05:38:13.831Z,61.93
2022-10-10T05:39:15.296Z,61.90
2022-10-10T05:40:16.766Z,62.03
2022-10-10T05:41:18.365Z,62.02
2022-10-10T05:42:19.862Z,62.11
2022-10-10T05:43:21.310Z,62.08
2022-10-10T05:44:22.748Z,62.00
2022-10-10T05:45:24.239Z,62.13
2022-10-10T05:46:27.473Z,62.06
2022-10-10T05:47:28.962Z,61.78
2022-10-10T05:48:30.470Z,61.91
2022-10-10T05:49:31.921Z,61.62
2022-10-10T05:50:34.431Z,61.79
2022-10-10T05:51:36.330Z,61.83
2022-10-10T05:52:37.779Z,61.74
2022-10-10T05:53:39.331Z,62.07
2022-10-10T05:54:40.804Z,61.89
2022-10-10T05:55:43.368Z,62.05
2022-10-10T05:56:44.875Z,61.88
2022-10-10T05:57:46.410Z,62.12
2022-10-10T05:58:47.895Z,62.25
2022-10-10T05:59:49.373Z,61.90
2022-10-10T06:00:50.881Z,62.14
2022-10-10T06:01:52.581Z,61.81
2022-10-10T06:02:54.700Z,62.47
2022-10-10T06:03:56.453Z,62.81
2022-10-10T06:04:57.912Z,62.71
2022-10-10T06:05:59.356Z,62.09
2022-10-10T06:07:00.831Z,62.44
2022-10-10T06:08:10.624Z,62.12
2022-10-10T06:09:13.253Z,62.39
2022-10-10T06:10:15.012Z,62.44
2022-10-10T06:11:17.488Z,62.21
2022-10-10T06:12:19.007Z,62.11
2022-10-10T06:13:24.233Z,62.13
2022-10-10T06:14:26.118Z,62.15
2022-10-10T06:15:27.576Z,61.98
2022-10-10T06:16:29.070Z,62.18
2022-10-10T06:17:30.529Z,61.95
2022-10-10T06:18:31.992Z,62.00
2022-10-10T06:19:33.472Z,61.72
2022-10-10T06:20:35.631Z,61.73
2022-10-10T06:21:37.115Z,61.90
2022-10-10T06:22:38.568Z,61.79
2022-10-10T06:23:40.074Z,62.19
2022-10-10T06:24:41.628Z,62.24
2022-10-10T06:25:43.072Z,62.28
2022-10-10T06:26:44.562Z,62.27
2022-10-10T06:27:46.021Z,62.37
2022-10-10T06:28:47.606Z,62.55
2022-10-10T06:29:49.121Z,62.60
2022-10-10T06:30:50.748Z,62.30
2022-10-10T06:31:52.192Z,62.58
2022-10-10T06:32:56.780Z,62.68
2022-10-10T06:33:58.624Z,62.73
2022-10-10T06:35:00.159Z,62.66
2022-10-10T06:36:03.643Z,62.51
2022-10-10T06:37:05.284Z,62.88
2022-10-10T06:38:06.741Z,62.71
2022-10-10T06:39:08.202Z,62.74
2022-10-10T06:40:09.918Z,62.73
2022-10-10T06:41:11.380Z,62.90
2022-10-10T06:42:12.862Z,62.66
2022-10-10T06:43:14.614Z,63.06
2022-10-10T06:44:18.812Z,63.16
2022-10-10T06:45:20.339Z,63.04
2022-10-10T06:46:21.868Z,63.10
2022-10-10T06:47:23.383Z,63.26
2022-10-10T06:48:25.002Z,63.03
2022-10-10T06:49:26.508Z,63.01
2022-10-10T06:50:27.963Z,63.23
2022-10-10T06:51:29.424Z,63.30
2022-10-10T06:52:30.884Z,63.52
2022-10-10T06:53:32.435Z,63.61
2022-10-10T06:54:33.883Z,63.75
2022-10-10T06:55:35.694Z,64.04
2022-10-10T06:56:37.136Z,63.85
2022-10-10T06:57:38.615Z,63.95
2022-10-10T06:58:40.043Z,63.86
2022-10-10T06:59:41.504Z,64.13
2022-10-10T07:00:48.163Z,64.21
2022-10-10T07:01:49.962Z,64.27
2022-10-10T07:02:52.607Z,64.27
2022-10-10T07:03:54.270Z,64.40
2022-10-10T07:04:55.845Z,64.37
2022-10-10T07:05:58.229Z,64.81
2022-10-10T07:06:59.703Z,64.64
2022-10-10T07:08:01.187Z,64.67
2022-10-10T07:09:02.709Z,64.58
2022-10-10T07:10:04.659Z,64.35
2022-10-10T07:11:07.221Z,64.19
2022-10-10T07:12:09.103Z,64.23
2022-10-10T07:13:10.943Z,64.24
2022-10-10T07:14:12.716Z,64.52
2022-10-10T07:15:14.481Z,64.20
2022-10-10T07:16:15.959Z,64.32
2022-10-10T07:17:17.464Z,64.60
2022-10-10T07:18:18.975Z,64.37
2022-10-10T07:19:21.611Z,64.56
2022-10-10T07:20:23.115Z,64.45
2022-10-10T07:21:24.586Z,64.58
2022-10-10T07:22:26.252Z,64.30
2022-10-10T07:23:28.035Z,64.39
2022-10-10T07:24:29.475Z,64.36
2022-10-10T07:25:30.983Z,64.71
2022-10-10T07:26:37.086Z,64.37
2022-10-10T07:27:38.567Z,64.59
2022-10-10T07:28:40.138Z,64.75
2022-10-10T07:29:41.939Z,64.53
2022-10-10T07:30:44.041Z,64.82
2022-10-10T07:31:45.519Z,64.49
2022-10-10T07:32:46.988Z,64.54
2022-10-10T07:33:50.527Z,64.70
2022-10-10T07:34:53.575Z,64.59
2022-10-10T07:35:55.062Z,64.75
2022-10-10T07:36:56.535Z,64.68
2022-10-10T07:37:57.975Z,64.86
2022-10-10T07:38:59.438Z,65.13
2022-10-10T07:40:01.292Z,65.01
2022-10-10T07:41:06.637Z,64.85
2022-10-10T07:42:08.116Z,65.06
2022-10-10T07:43:09.713Z,65.17
2022-10-10T07:44:11.157Z,65.05
2022-10-10T07:45:12.664Z,65.13
2022-10-10T07:46:17.542Z,65.22
2022-10-10T07:47:19.055Z,65.24
2022-10-10T07:48:20.479Z,65.69
2022-10-10T07:49:21.913Z,66.03
2022-10-10T07:50:25.969Z,65.98
2022-10-10T07:51:27.460Z,65.61
2022-10-10T07:52:28.967Z,65.51
2022-10-10T07:53:30.717Z,65.73
2022-10-10T07:54:32.283Z,65.52
2022-10-10T07:55:33.921Z,66.09
2022-10-10T07:56:35.452Z,66.01
2022-10-10T07:57:36.987Z,65.81
2022-10-10T07:58:38.454Z,66.25
2022-10-10T07:59:40.759Z,66.32
2022-10-10T08:00:42.348Z,66.10
2022-10-10T08:01:43.862Z,66.20
2022-10-10T08:02:45.461Z,65.94
2022-10-10T08:03:47.085Z,66.30
2022-10-10T08:04:48.589Z,66.23
2022-10-10T08:05:50.128Z,66.67
2022-10-10T08:06:51.610Z,66.43
2022-10-10T08:07:53.548Z,66.93
2022-10-10T08:08:55.301Z,66.80
2022-10-10T08:09:56.815Z,66.71
2022-10-10T08:10:58.465Z,67.07
2022-10-10T08:11:59.939Z,67.00
2022-10-10T08:13:01.383Z,66.93
2022-10-10T08:14:03.299Z,67.27
2022-10-10T08:15:05.604Z,66.97
2022-10-10T08:16:07.101Z,66.74
2022-10-10T08:17:08.543Z,66.94
2022-10-10T08:18:10.035Z,66.98
2022-10-10T08:19:11.530Z,67.27
2022-10-10T08:20:13.036Z,67.48
2022-10-10T08:21:14.735Z,67.08
2022-10-10T08:22:16.200Z,67.39
2022-10-10T08:23:20.548Z,67.37
2022-10-10T08:24:24.733Z,67.89
2022-10-10T08:25:26.352Z,67.76
2022-10-10T08:26:27.839Z,67.69
2022-10-10T08:27:29.352Z,67.66
2022-10-10T08:28:31.192Z,67.84
2022-10-10T08:29:33.302Z,67.70
2022-10-10T08:30:34.777Z,67.59
2022-10-10T08:31:36.290Z,67.69
2022-10-10T08:32:37.786Z,67.96
2022-10-10T08:33:39.676Z,67.92
2022-10-10T08:34:41.127Z,68.01
2022-10-10T08:35:42.640Z,68.12
2022-10-10T08:36:44.125Z,68.06
2022-10-10T08:37:45.637Z,68.20
2022-10-10T08:38:47.707Z,68.09
2022-10-10T08:39:49.849Z,67.92
2022-10-10T08:40:51.549Z,67.94
2022-10-10T08:41:55.258Z,68.06
2022-10-10T08:42:56.986Z,68.26
2022-10-10T08:44:00.963Z,67.83
2022-10-10T08:45:03.714Z,67.90
2022-10-10T08:46:08.691Z,68.24
2022-10-10T08:47:10.092Z,68.30
2022-10-10T08:48:12.480Z,67.91
2022-10-10T08:49:18.684Z,67.86
2022-10-10T08:50:21.813Z,68.51
2022-10-10T08:51:30.631Z,68.72
2022-10-10T08:52:32.702Z,68.34
2022-10-10T08:53:46.906Z,68.53
2022-10-10T08:54:48.707Z,69.10
2022-10-10T08:55:50.156Z,68.91
2022-10-10T08:56:51.715Z,69.13
2022-10-10T08:58:11.882Z,69.00
2022-10-10T08:59:23.551Z,68.55
2022-10-10T09:00:26.350Z,69.13
2022-10-10T09:01:29.066Z,69.58
2022-10-10T09:02:54.873Z,69.62
2022-10-10T09:04:00.662Z,70.24
2022-10-10T09:05:02.109Z,70.12
2022-10-10T09:06:06.371Z,69.69
2022-10-10T09:07:10.696Z,69.79
2022-10-10T09:08:15.693Z,69.60
2022-10-10T09:09:23.125Z,69.39
2022-10-10T09:10:33.849Z,69.15
2022-10-10T09:11:41.550Z,69.12
2022-10-10T09:13:02.094Z,68.82
2022-10-10T09:14:15.494Z,68.69
2022-10-10T09:15:46.344Z,68.57
2022-10-10T09:16:50.485Z,68.19
2022-10-10T09:17:55.615Z,68.08
2022-10-10T09:19:00.611Z,67.63
2022-10-10T09:20:18.040Z,67.88
2022-10-10T09:21:26.492Z,67.96
2022-10-10T09:22:29.854Z,67.93
2022-10-10T09:23:33.107Z,67.93
2022-10-10T09:24:41.196Z,67.63
2022-10-10T09:26:11.414Z,67.46
2022-10-10T09:27:15.116Z,67.29
2022-10-10T09:28:18.668Z,67.45
2022-10-10T09:29:39.563Z,67.54
2022-10-10T09:30:43.224Z,67.35
2022-10-10T09:31:46.625Z,67.40
2022-10-10T09:32:53.389Z,67.10
2022-10-10T09:34:10.948Z,67.07
2022-10-10T09:35:18.105Z,66.22
2022-10-10T09:36:21.201Z,65.44
2022-10-10T09:37:53.704Z,64.89
2022-10-10T09:39:00.337Z,64.59
2022-10-10T09:40:04.747Z,64.07
2022-10-10T09:41:09.607Z,63.87
2022-10-10T09:42:12.725Z,63.93
2022-10-10T09:43:17.476Z,63.66
2022-10-10T09:44:20.031Z,63.55
2022-10-10T09:45:27.299Z,63.48
2022-10-10T09:46:29.270Z,63.83
2022-10-10T09:47:31.276Z,63.58
2022-10-10T09:48:39.797Z,61.39
2022-10-10T09:49:42.061Z,61.18
2022-10-10T09:50:44.760Z,62.28
2022-10-10T09:51:47.128Z,60.45
2022-10-10T09:52:49.366Z,60.38
2022-10-10T09:53:51.197Z,59.51
2022-10-10T09:54:56.013Z,58.36
2022-10-10T09:55:58.001Z,56.22
2022-10-10T09:56:59.738Z,56.93
2022-10-10T09:58:03.819Z,56.85
2022-10-10T09:59:06.083Z,56.34
2022-10-10T10:00:25.631Z,55.45
2022-10-10T10:01:29.110Z,55.44
2022-10-10T10:02:31.492Z,55.08
2022-10-10T10:03:33.194Z,55.34
2022-10-10T10:04:34.671Z,55.84
2022-10-10T10:05:36.109Z,55.28
2022-10-10T10:06:37.616Z,54.19
2022-10-10T10:07:46.910Z,53.97
2022-10-10T10:08:49.985Z,52.90
2022-10-10T10:10:01.307Z,53.63
2022-10-10T10:11:03.163Z,52.30
2022-10-10T10:12:05.322Z,52.51
2022-10-10T10:13:12.281Z,52.30
2022-10-10T10:14:18.965Z,52.37
2022-10-10T10:15:23.119Z,51.11
2022-10-10T10:16:40.142Z,51.23
2022-10-10T10:17:41.636Z,51.49
2022-10-10T10:18:43.777Z,51.80
2022-10-10T10:19:45.786Z,51.41
2022-10-10T10:20:48.542Z,50.65
2022-10-10T10:21:50.470Z,50.61
2022-10-10T10:23:57.826Z,49.77
2022-10-10T10:24:59.935Z,49.79
2022-10-10T10:26:02.411Z,49.19
2022-10-10T10:27:14.715Z,48.62
2022-10-10T10:28:16.728Z,49.79
2022-10-10T10:29:24.376Z,48.84
2022-10-10T10:30:25.971Z,48.62
2022-10-10T10:31:31.043Z,48.11
2022-10-10T10:32:32.540Z,47.63
2022-10-10T10:33:34.151Z,46.81
2022-10-10T10:34:44.188Z,46.86
2022-10-10T10:35:51.912Z,46.99
2022-10-10T10:36:59.773Z,46.76
2022-10-10T10:38:05.386Z,47.04
2022-10-10T10:39:09.956Z,47.11
2022-10-10T10:40:25.767Z,47.45
2022-10-10T10:41:30.114Z,47.29
2022-10-10T10:42:43.835Z,46.61
2022-10-10T10:44:00.855Z,47.01
2022-10-10T10:45:11.148Z,47.38
2022-10-10T10:46:28.010Z,46.93
2022-10-10T10:49:01.489Z,46.90
2022-10-10T10:50:12.370Z,46.51
2022-10-10T10:51:22.925Z,46.40
2022-10-10T10:52:47.539Z,47.17
2022-10-10T10:54:03.742Z,46.86
2022-10-10T10:55:11.114Z,47.03
2022-10-10T10:56:18.662Z,47.07
2022-10-10T10:57:37.101Z,46.75
2022-10-10T10:59:30.309Z,47.24
2022-10-10T11:00:20.969Z,47.01
2022-10-10T11:01:56.600Z,47.17
2022-10-10T11:04:15.645Z,47.33
2022-10-10T11:05:19.452Z,46.81
2022-10-10T11:06:21.162Z,47.22
2022-10-10T11:07:23.276Z,47.34
2022-10-10T11:08:43.531Z,47.52
2022-10-10T11:09:49.974Z,48.12
2022-10-10T11:10:54.904Z,47.95
2022-10-10T11:12:03.596Z,47.96
2022-10-10T11:13:08.720Z,48.31
2022-10-10T11:14:18.205Z,48.93
2022-10-10T11:17:21.272Z,49.24
2022-10-10T11:18:22.768Z,49.99
2022-10-10T11:19:34.530Z,50.05
2022-10-10T11:20:49.716Z,49.94
2022-10-10T11:21:53.453Z,50.05
2022-10-10T11:23:06.547Z,50.15
2022-10-10T11:24:11.829Z,49.84
2022-10-10T11:25:23.807Z,50.02
2022-10-10T11:26:45.551Z,49.91
2022-10-10T11:27:48.236Z,50.18
2022-10-10T11:29:08.096Z,49.84
2022-10-10T11:30:14.377Z,50.11
2022-10-10T11:31:20.995Z,50.45
2022-10-10T11:32:28.207Z,50.04
2022-10-10T11:33:31.180Z,50.76
2022-10-10T11:34:34.098Z,50.57
2022-10-10T11:35:40.777Z,50.54
2022-10-10T11:36:42.639Z,50.48
2022-10-10T11:37:46.242Z,50.64
2022-10-10T11:38:57.787Z,50.81
2022-10-10T11:40:00.043Z,50.96
2022-10-10T11:41:19.903Z,51.32
2022-10-10T11:42:27.783Z,50.89
2022-10-10T11:43:35.040Z,50.64
2022-10-10T11:44:37.582Z,50.86
2022-10-10T11:45:52.323Z,50.82
2022-10-10T11:46:57.442Z,50.90
2022-10-10T11:48:02.160Z,51.46
2022-10-10T11:49:07.792Z,50.97
2022-10-10T11:50:13.473Z,50.78
2022-10-10T11:51:17.061Z,50.76
2022-10-10T11:52:33.987Z,50.66
2022-10-10T11:53:37.593Z,50.79
2022-10-10T11:54:41.645Z,50.94
2022-10-10T11:55:51.676Z,50.86
2022-10-10T11:56:53.830Z,50.88
2022-10-10T11:58:18.882Z,50.99
2022-10-10T11:59:41.324Z,50.53
2022-10-10T12:00:50.179Z,50.39
2022-10-10T12:01:55.901Z,50.46
2022-10-10T12:02:57.462Z,50.81
2022-10-10T12:03:59.008Z,50.85
2022-10-10T12:05:00.486Z,50.89
2022-10-10T12:06:07.713Z,50.53
2022-10-10T12:07:13.964Z,50.91
2022-10-10T12:08:35.290Z,51.19
2022-10-10T12:09:43.732Z,51.05
2022-10-10T12:10:52.880Z,50.83
2022-10-10T12:12:04.859Z,50.74
2022-10-10T12:13:16.315Z,50.86
2022-10-10T12:14:18.192Z,51.41
2022-10-10T12:15:28.688Z,51.52
2022-10-10T12:16:31.367Z,51.04
2022-10-10T12:17:33.311Z,51.29
2022-10-10T12:18:45.058Z,51.41
2022-10-10T12:19:47.479Z,51.48
2022-10-10T12:20:48.918Z,51.75
2022-10-10T12:21:53.924Z,51.54
2022-10-10T12:23:10.690Z,51.15
2022-10-10T12:24:12.868Z,51.37
2022-10-10T12:25:24.577Z,51.60
2022-10-10T12:26:26.565Z,51.49
2022-10-10T12:27:29.244Z,51.50
2022-10-10T12:28:37.900Z,51.19
2022-10-10T12:29:42.313Z,51.53
2022-10-10T12:30:58.528Z,51.42
2022-10-10T12:32:15.769Z,51.75
2022-10-10T12:33:26.204Z,51.56
2022-10-10T12:34:45.927Z,51.29
2022-10-10T12:35:47.529Z,51.51
2022-10-10T12:36:55.907Z,51.38
2022-10-10T12:38:12.469Z,51.41
2022-10-10T12:39:13.921Z,51.89
2022-10-10T12:40:21.075Z,51.80
2022-10-10T12:41:22.547Z,51.52
2022-10-10T12:42:29.218Z,51.63
2022-10-10T12:43:45.756Z,51.71
2022-10-10T12:44:47.286Z,51.97
2022-10-10T12:45:58.380Z,51.50
2022-10-10T12:47:14.861Z,51.76
2022-10-10T12:48:19.507Z,51.37
2022-10-10T12:49:21.455Z,51.10
2022-10-10T12:50:24.243Z,51.30
2022-10-10T12:51:25.767Z,51.25
2022-10-10T12:52:28.858Z,51.08
2022-10-10T12:53:31.479Z,51.53
2022-10-10T12:54:34.019Z,51.18
2022-10-10T12:55:47.524Z,51.27
2022-10-10T12:56:49.068Z,51.71
2022-10-10T12:57:51.069Z,51.53
2022-10-10T12:58:52.521Z,51.43
2022-10-10T12:59:55.829Z,51.39
2022-10-10T13:01:01.279Z,50.77
2022-10-10T13:02:04.759Z,50.54
2022-10-10T13:03:10.178Z,50.54
2022-10-10T13:04:14.672Z,50.61
2022-10-10T13:05:19.973Z,51.05
2022-10-10T13:06:21.487Z,51.03
2022-10-10T13:07:22.948Z,50.92
2022-10-10T13:08:24.943Z,50.69
2022-10-10T13:09:31.065Z,51.02
2022-10-10T13:10:35.985Z,51.54
2022-10-10T13:12:05.872Z,51.47
2022-10-10T13:13:16.075Z,51.39
2022-10-10T13:14:17.543Z,51.48
2022-10-10T13:15:21.959Z,51.58
2022-10-10T13:16:31.160Z,51.56
2022-10-10T13:17:38.082Z,51.72
2022-10-10T13:18:39.701Z,51.64
2022-10-10T13:19:41.232Z,51.62
2022-10-10T13:20:42.676Z,51.61
2022-10-10T13:21:44.222Z,51.65
2022-10-10T13:22:47.419Z,51.33
2022-10-10T13:25:12.201Z,51.55
2022-10-10T13:26:19.374Z,51.80
2022-10-10T13:27:27.460Z,52.21
2022-10-10T13:28:28.958Z,51.98
2022-10-10T13:29:31.307Z,51.58
2022-10-10T13:30:32.857Z,51.45
2022-10-10T13:31:34.387Z,51.16
2022-10-10T13:32:35.930Z,50.93
2022-10-10T13:33:37.391Z,51.40
2022-10-10T13:34:40.126Z,51.26
2022-10-10T13:35:41.590Z,51.24
2022-10-10T13:36:43.471Z,51.24
2022-10-10T13:37:46.183Z,51.20
2022-10-10T13:38:50.764Z,50.94
2022-10-10T13:39:52.425Z,50.85
2022-10-10T13:40:53.903Z,51.24
2022-10-10T13:41:55.491Z,51.38
2022-10-10T13:42:58.711Z,51.63
2022-10-10T13:44:00.300Z,51.54
2022-10-10T13:45:03.244Z,51.78
2022-10-10T13:46:04.777Z,51.56
2022-10-10T13:47:24.932Z,51.20
2022-10-10T13:48:35.733Z,49.91
2022-10-10T13:49:37.214Z,50.13
2022-10-10T13:50:44.723Z,50.50
2022-10-10T13:51:46.550Z,50.73
2022-10-10T13:52:48.033Z,50.83
2022-10-10T13:53:50.495Z,50.22